sensor_id;sensor_type;location;lat;lon;timestamp;pressure;altitude;pressure_sealevel;temperature;humidity
21664;BME280;10993;52.510;13.456;2023-02-20T00:03:00;56603.31;;;-146.93;70.60
21664;BME280;10993;52.510;13.456;2023-02-20T00:08:00;56589.13;;;-146.93;71.07
21664;BME280;10993;52.510;13.456;2023-02-20T00:13:01;56601.28;;;-146.93;71.20
21664;BME280;10993;52.510;13.456;2023-02-20T00:18:02;56775.41;;;-146.93;71.42
21664;BME280;10993;52.510;13.456;2023-02-20T00:23:03;56603.31;;;-146.93;71.27
21664;BME280;10993;52.510;13.456;2023-02-20T00:28:03;56593.19;;;-146.93;71.76
21664;BME280;10993;52.510;13.456;2023-02-20T00:33:05;56587.13;;;-146.93;72.09
21664;BME280;10993;52.510;13.456;2023-02-20T00:38:06;56603.31;;;-146.93;71.78
21664;BME280;10993;52.510;13.456;2023-02-20T00:43:06;56574.97;;;-146.93;72.01
21664;BME280;10993;52.510;13.456;2023-02-20T00:48:08;56587.13;;;-146.93;72.04
21664;BME280;10993;52.510;13.456;2023-02-20T00:53:08;56625.59;;;-146.93;72.02
21664;BME280;10993;52.510;13.456;2023-02-20T00:58:08;56593.19;;;-146.93;72.75
21664;BME280;10993;52.510;13.456;2023-02-20T01:03:10;56615.47;;;-146.93;72.86
21664;BME280;10993;52.510;13.456;2023-02-20T01:08:12;57289.75;;;-146.93;73.08
21664;BME280;10993;52.510;13.456;2023-02-20T01:13:12;56583.06;;;-146.93;73.07
21664;BME280;10993;52.510;13.456;2023-02-20T01:18:14;56609.38;;;-146.93;72.98
21664;BME280;10993;52.510;13.456;2023-02-20T01:23:14;56577.00;;;-146.93;72.84
21664;BME280;10993;52.510;13.456;2023-02-20T01:28:14;56625.59;;;-146.93;72.63
21664;BME280;10993;52.510;13.456;2023-02-20T01:33:16;56621.53;;;-146.93;72.81
21664;BME280;10993;52.510;13.456;2023-02-20T01:38:16;56572.94;;;-146.93;72.31
21664;BME280;10993;52.510;13.456;2023-02-20T01:43:17;56587.13;;;-146.93;72.53
21664;BME280;10993;52.510;13.456;2023-02-20T01:48:21;56546.63;;;-146.93;72.22
21664;BME280;10993;52.510;13.456;2023-02-20T01:53:24;56589.13;;;-146.93;71.35
21664;BME280;10993;52.510;13.456;2023-02-20T01:58:28;56601.28;;;-146.93;71.34
21664;BME280;10993;52.510;13.456;2023-02-20T02:03:34;56574.97;;;-146.93;71.69
21664;BME280;10993;52.510;13.456;2023-02-20T02:08:38;56568.88;;;-146.93;71.78
21664;BME280;10993;52.510;13.456;2023-02-20T02:13:38;56615.47;;;-146.93;72.13
21664;BME280;10993;52.510;13.456;2023-02-20T02:25:01;56593.19;;;-146.93;71.82
21664;BME280;10993;52.510;13.456;2023-02-20T02:30:34;56601.28;;;-146.93;71.60
21664;BME280;10993;52.510;13.456;2023-02-20T02:36:05;56639.75;;;-146.93;72.16
21664;BME280;10993;52.510;13.456;2023-02-20T02:41:17;56552.69;;;-146.93;71.63
21664;BME280;10993;52.510;13.456;2023-02-20T02:46:24;56581.03;;;-146.93;71.41
21664;BME280;10993;52.510;13.456;2023-02-20T02:51:33;56583.06;;;-146.93;71.03
21664;BME280;10993;52.510;13.456;2023-02-20T02:56:38;56589.13;;;-146.93;71.16
21664;BME280;10993;52.510;13.456;2023-02-20T03:01:44;56601.28;;;-146.93;71.19
21664;BME280;10993;52.510;13.456;2023-02-20T03:06:48;56579.00;;;-146.93;71.01
21664;BME280;10993;52.510;13.456;2023-02-20T03:11:50;56560.78;;;-146.93;71.86
21664;BME280;10993;52.510;13.456;2023-02-20T03:16:56;56585.09;;;-146.93;71.47
21664;BME280;10993;52.510;13.456;2023-02-20T03:22:01;56572.94;;;-146.93;71.31
21664;BME280;10993;52.510;13.456;2023-02-20T03:27:03;56548.66;;;-146.93;71.20
21664;BME280;10993;52.510;13.456;2023-02-20T03:32:06;56404.91;;;-146.93;70.91
21664;BME280;10993;52.510;13.456;2023-02-20T03:37:30;56564.84;;;-146.93;70.82
21664;BME280;10993;52.510;13.456;2023-02-20T03:42:55;56615.47;;;-146.93;70.69
21664;BME280;10993;52.510;13.456;2023-02-20T03:48:19;56574.97;;;-146.93;70.71
21664;BME280;10993;52.510;13.456;2023-02-20T03:53:22;56572.94;;;-146.93;71.20
21664;BME280;10993;52.510;13.456;2023-02-20T03:58:24;56538.53;;;-146.93;71.36
21664;BME280;10993;52.510;13.456;2023-02-20T04:03:27;56516.25;;;-146.93;71.54
21664;BME280;10993;52.510;13.456;2023-02-20T04:08:32;56589.13;;;-146.93;70.92
21664;BME280;10993;52.510;13.456;2023-02-20T04:13:36;56568.88;;;-146.93;71.78
21664;BME280;10993;52.510;13.456;2023-02-20T04:18:38;56560.78;;;-146.93;72.31
21664;BME280;10993;52.510;13.456;2023-02-20T04:23:42;56566.88;;;-146.93;72.08
21664;BME280;10993;52.510;13.456;2023-02-20T04:28:46;56554.72;;;-146.93;71.96
21664;BME280;10993;52.510;13.456;2023-02-20T04:33:47;56544.59;;;-146.93;71.81
21664;BME280;10993;52.510;13.456;2023-02-20T04:38:48;56550.66;;;-146.93;72.11
21664;BME280;10993;52.510;13.456;2023-02-20T04:43:49;56574.97;;;-146.93;72.14
21664;BME280;10993;52.510;13.456;2023-02-20T04:48:49;56562.81;;;-146.93;72.28
21664;BME280;10993;52.510;13.456;2023-02-20T04:53:51;56552.69;;;-146.93;72.48
21664;BME280;10993;52.510;13.456;2023-02-20T04:58:51;56585.09;;;-146.93;72.36
21664;BME280;10993;52.510;13.456;2023-02-20T05:03:51;56566.88;;;-146.93;72.48
21664;BME280;10993;52.510;13.456;2023-02-20T05:08:53;56617.47;;;-146.93;72.91
21664;BME280;10993;52.510;13.456;2023-02-20T05:13:53;56601.28;;;-146.93;72.72
21664;BME280;10993;52.510;13.456;2023-02-20T05:18:54;56568.88;;;-146.93;72.49
21664;BME280;10993;52.510;13.456;2023-02-20T05:23:55;56577.00;;;-146.93;72.42
21664;BME280;10993;52.510;13.456;2023-02-20T05:28:56;56593.19;;;-146.93;73.99
21664;BME280;10993;52.510;13.456;2023-02-20T05:33:56;56566.88;;;-146.93;75.03
21664;BME280;10993;52.510;13.456;2023-02-20T05:38:58;56564.84;;;-146.93;75.41
21664;BME280;10993;52.510;13.456;2023-02-20T05:43:58;56609.38;;;-146.93;76.05
21664;BME280;10993;52.510;13.456;2023-02-20T05:48:59;56556.75;;;-146.93;76.43
21664;BME280;10993;52.510;13.456;2023-02-20T05:54:00;56572.94;;;-146.93;77.17
21664;BME280;10993;52.510;13.456;2023-02-20T05:59:01;56552.69;;;-146.93;77.65
21664;BME280;10993;52.510;13.456;2023-02-20T06:04:01;56585.09;;;-146.93;78.38
21664;BME280;10993;52.510;13.456;2023-02-20T06:09:05;56591.16;;;-146.93;78.78
21664;BME280;10993;52.510;13.456;2023-02-20T06:14:09;56558.75;;;-146.93;78.94
21664;BME280;10993;52.510;13.456;2023-02-20T06:19:10;56556.75;;;-146.93;78.60
21664;BME280;10993;52.510;13.456;2023-02-20T06:24:12;56564.84;;;-146.93;78.51
21664;BME280;10993;52.510;13.456;2023-02-20T06:29:14;56572.94;;;-146.93;78.16
21664;BME280;10993;52.510;13.456;2023-02-20T06:34:15;56459.56;;;-146.93;78.24
21664;BME280;10993;52.510;13.456;2023-02-20T06:39:17;56581.03;;;-146.93;77.88
21664;BME280;10993;52.510;13.456;2023-02-20T06:44:17;56572.94;;;-146.93;78.41
21664;BME280;10993;52.510;13.456;2023-02-20T06:49:17;56562.81;;;-146.93;78.39
21664;BME280;10993;52.510;13.456;2023-02-20T06:54:19;56544.59;;;-146.93;79.31
21664;BME280;10993;52.510;13.456;2023-02-20T06:59:22;56558.75;;;-146.93;79.56
21664;BME280;10993;52.510;13.456;2023-02-20T07:04:24;56560.78;;;-146.93;78.84
21664;BME280;10993;52.510;13.456;2023-02-20T07:09:27;56556.75;;;-146.93;78.20
21664;BME280;10993;52.510;13.456;2023-02-20T07:14:27;56562.81;;;-146.93;77.58
21664;BME280;10993;52.510;13.456;2023-02-20T07:19:27;56546.63;;;-146.93;77.32
21664;BME280;10993;52.510;13.456;2023-02-20T07:24:29;56605.34;;;-146.93;75.94
21664;BME280;10993;52.510;13.456;2023-02-20T07:29:29;56577.00;;;-146.93;76.29
21664;BME280;10993;52.510;13.456;2023-02-20T07:34:30;56603.31;;;-146.93;74.99
21664;BME280;10993;52.510;13.456;2023-02-20T07:39:31;56591.16;;;-146.93;74.40
21664;BME280;10993;52.510;13.456;2023-02-20T07:44:32;56577.00;;;-146.93;72.97
21664;BME280;10993;52.510;13.456;2023-02-20T07:49:32;56568.88;;;-146.93;71.53
21664;BME280;10993;52.510;13.456;2023-02-20T07:54:34;56593.19;;;-146.93;71.03
21664;BME280;10993;52.510;13.456;2023-02-20T07:59:34;56601.28;;;-146.93;70.77
21664;BME280;10993;52.510;13.456;2023-02-20T08:04:34;56574.97;;;-146.93;70.18
21664;BME280;10993;52.510;13.456;2023-02-20T08:09:36;56613.44;;;-146.93;68.93
21664;BME280;10993;52.510;13.456;2023-02-20T08:14:36;56581.03;;;-146.93;68.47
21664;BME280;10993;52.510;13.456;2023-02-20T08:19:37;56577.00;;;-146.93;68.12
21664;BME280;10993;52.510;13.456;2023-02-20T08:24:38;56568.88;;;-146.93;67.56
21664;BME280;10993;52.510;13.456;2023-02-20T08:29:38;56581.03;;;-146.93;66.00
21664;BME280;10993;52.510;13.456;2023-02-20T08:34:39;56593.19;;;-146.93;65.24
21664;BME280;10993;52.510;13.456;2023-02-20T08:39:41;56560.78;;;-146.93;64.21
21664;BME280;10993;52.510;13.456;2023-02-20T08:44:42;56589.13;;;-146.93;63.16
21664;BME280;10993;52.510;13.456;2023-02-20T08:49:45;56506.13;;;-146.93;62.82
21664;BME280;10993;52.510;13.456;2023-02-20T08:54:47;56481.84;;;-146.93;62.73
21664;BME280;10993;52.510;13.456;2023-02-20T08:59:48;56629.63;;;-146.93;62.26
21664;BME280;10993;52.510;13.456;2023-02-20T09:04:48;56572.94;;;-146.93;61.00
21664;BME280;10993;52.510;13.456;2023-02-20T09:09:50;56560.78;;;-146.93;61.00
21664;BME280;10993;52.510;13.456;2023-02-20T09:14:50;56710.63;;;-146.93;59.19
21664;BME280;10993;52.510;13.456;2023-02-20T09:19:51;56645.81;;;-146.93;58.83
21664;BME280;10993;52.510;13.456;2023-02-20T09:24:53;56625.59;;;-146.93;57.33
21664;BME280;10993;52.510;13.456;2023-02-20T09:29:53;56617.47;;;-146.93;56.62
21664;BME280;10993;52.510;13.456;2023-02-20T09:34:54;56637.72;;;-146.93;55.54
21664;BME280;10993;52.510;13.456;2023-02-20T09:39:55;56625.59;;;-146.93;55.00
21664;BME280;10993;52.510;13.456;2023-02-20T09:45:02;56643.81;;;-146.93;53.75
21664;BME280;10993;52.510;13.456;2023-02-20T09:50:09;56621.53;;;-146.93;53.61
21664;BME280;10993;52.510;13.456;2023-02-20T09:55:19;56522.31;;;-146.93;52.13
21664;BME280;10993;52.510;13.456;2023-02-20T10:00:24;56710.63;;;-146.93;52.04
21664;BME280;10993;52.510;13.456;2023-02-20T10:05:28;56581.03;;;-146.93;51.25
21664;BME280;10993;52.510;13.456;2023-02-20T10:10:31;56702.53;;;-146.93;50.30
21664;BME280;10993;52.510;13.456;2023-02-20T10:15:45;56635.72;;;-146.93;49.44
21664;BME280;10993;52.510;13.456;2023-02-20T10:20:54;56615.47;;;-146.93;49.90
21664;BME280;10993;52.510;13.456;2023-02-20T10:26:00;56668.09;;;-146.93;50.39
21664;BME280;10993;52.510;13.456;2023-02-20T10:31:07;56666.06;;;-146.93;49.71
21664;BME280;10993;52.510;13.456;2023-02-20T10:36:13;56670.13;;;-146.93;49.85
21664;BME280;10993;52.510;13.456;2023-02-20T10:41:21;56670.13;;;-146.93;48.62
21664;BME280;10993;52.510;13.456;2023-02-20T10:46:28;56718.72;;;-146.93;49.14
21664;BME280;10993;52.510;13.456;2023-02-20T10:51:33;56698.47;;;-146.93;48.56
21664;BME280;10993;52.510;13.456;2023-02-20T10:56:38;56704.53;;;-146.93;49.84
21664;BME280;10993;52.510;13.456;2023-02-20T11:01:40;56692.41;;;-146.93;50.37
21664;BME280;10993;52.510;13.456;2023-02-20T11:06:44;56706.56;;;-146.93;49.91
21664;BME280;10993;52.510;13.456;2023-02-20T11:11:46;56706.56;;;-146.93;51.56
21664;BME280;10993;52.510;13.456;2023-02-20T11:16:50;56674.19;;;-146.93;52.11
21664;BME280;10993;52.510;13.456;2023-02-20T11:21:52;56815.91;;;-146.93;52.61
21664;BME280;10993;52.510;13.456;2023-02-20T11:26:57;56692.41;;;-146.93;52.81
21664;BME280;10993;52.510;13.456;2023-02-20T11:37:37;56666.06;;;-146.93;54.73
21664;BME280;10993;52.510;13.456;2023-02-20T11:42:39;56562.81;;;-146.93;55.58
21664;BME280;10993;52.510;13.456;2023-02-20T11:47:40;56694.41;;;-146.93;55.48
21664;BME280;10993;52.510;13.456;2023-02-20T11:52:55;56678.22;;;-146.93;55.76
21664;BME280;10993;52.510;13.456;2023-02-20T11:57:57;56722.78;;;-146.93;55.29
21664;BME280;10993;52.510;13.456;2023-02-20T12:03:09;56700.50;;;-146.93;55.67
21664;BME280;10993;52.510;13.456;2023-02-20T12:08:33;56702.53;;;-146.93;58.48
21664;BME280;10993;52.510;13.456;2023-02-20T12:13:38;56706.56;;;-146.93;59.77
21664;BME280;10993;52.510;13.456;2023-02-20T12:18:43;56662.03;;;-146.93;59.19
21664;BME280;10993;52.510;13.456;2023-02-20T12:23:54;56694.41;;;-146.93;58.68
21664;BME280;10993;52.510;13.456;2023-02-20T12:29:09;56706.56;;;-146.93;58.72
21664;BME280;10993;52.510;13.456;2023-02-20T12:34:33;56694.41;;;-146.93;59.06
21664;BME280;10993;52.510;13.456;2023-02-20T12:39:45;56694.41;;;-146.93;60.43
21664;BME280;10993;52.510;13.456;2023-02-20T12:45:03;56698.47;;;-146.93;59.87
21664;BME280;10993;52.510;13.456;2023-02-20T12:50:29;56690.38;;;-146.93;60.46
21664;BME280;10993;52.510;13.456;2023-02-20T12:55:37;56668.09;;;-146.93;60.83
21664;BME280;10993;52.510;13.456;2023-02-20T13:00:51;56676.19;;;-146.93;61.97
21664;BME280;10993;52.510;13.456;2023-02-20T13:05:52;56702.53;;;-146.93;63.17
21664;BME280;10993;52.510;13.456;2023-02-20T13:10:55;56680.25;;;-146.93;63.68
21664;BME280;10993;52.510;13.456;2023-02-20T13:16:03;56528.41;;;-146.93;66.51
21664;BME280;10993;52.510;13.456;2023-02-20T13:21:11;56662.03;;;-146.93;69.10
21664;BME280;10993;52.510;13.456;2023-02-20T13:26:45;56668.09;;;-146.93;69.15
21664;BME280;10993;52.510;13.456;2023-02-20T13:31:48;56645.81;;;-146.93;70.26
21664;BME280;10993;52.510;13.456;2023-02-20T13:36:49;56631.66;;;-146.93;71.49
21664;BME280;10993;52.510;13.456;2023-02-20T13:41:57;56635.72;;;-146.93;71.93
21664;BME280;10993;52.510;13.456;2023-02-20T13:47:00;56532.44;;;-146.93;73.16
21664;BME280;10993;52.510;13.456;2023-02-20T13:52:37;56623.56;;;-146.93;73.50
21664;BME280;10993;52.510;13.456;2023-02-20T13:57:42;56615.47;;;-146.93;73.02
21664;BME280;10993;52.510;13.456;2023-02-20T14:02:46;56664.06;;;-146.93;72.73
21664;BME280;10993;52.510;13.456;2023-02-20T14:07:46;56639.75;;;-146.93;72.16
21664;BME280;10993;52.510;13.456;2023-02-20T14:12:52;57553.03;;;-146.93;72.57
21664;BME280;10993;52.510;13.456;2023-02-20T14:17:56;56581.03;;;-146.93;72.63
21664;BME280;10993;52.510;13.456;2023-02-20T14:23:18;56609.38;;;-146.93;72.47
21664;BME280;10993;52.510;13.456;2023-02-20T14:28:18;56645.81;;;-146.93;72.47
21664;BME280;10993;52.510;13.456;2023-02-20T14:33:25;56649.88;;;-146.93;72.33
21664;BME280;10993;52.510;13.456;2023-02-20T14:38:35;56633.69;;;-146.93;72.20
21664;BME280;10993;52.510;13.456;2023-02-20T14:43:40;56649.88;;;-146.93;71.69
21664;BME280;10993;52.510;13.456;2023-02-20T14:48:42;56647.84;;;-146.93;71.26
21664;BME280;10993;52.510;13.456;2023-02-20T14:53:43;56666.06;;;-146.93;70.31
21664;BME280;10993;52.510;13.456;2023-02-20T14:58:45;56520.28;;;-146.93;69.45
21664;BME280;10993;52.510;13.456;2023-02-20T15:03:57;56678.22;;;-146.93;68.31
21664;BME280;10993;52.510;13.456;2023-02-20T15:09:00;56664.06;;;-146.93;67.72
21664;BME280;10993;52.510;13.456;2023-02-20T15:14:02;56633.69;;;-146.93;67.28
21664;BME280;10993;52.510;13.456;2023-02-20T15:19:19;56662.03;;;-146.93;67.60
21664;BME280;10993;52.510;13.456;2023-02-20T15:24:32;56684.31;;;-146.93;67.79
21664;BME280;10993;52.510;13.456;2023-02-20T15:29:33;56678.22;;;-146.93;68.25
21664;BME280;10993;52.510;13.456;2023-02-20T15:34:36;56674.19;;;-146.93;67.79
21664;BME280;10993;52.510;13.456;2023-02-20T15:39:38;57571.25;;;-146.93;67.94
21664;BME280;10993;52.510;13.456;2023-02-20T15:44:38;56686.31;;;-146.93;68.18
21664;BME280;10993;52.510;13.456;2023-02-20T15:49:40;56633.69;;;-146.93;68.64
21664;BME280;10993;52.510;13.456;2023-02-20T15:54:40;56688.34;;;-146.93;68.51
21664;BME280;10993;52.510;13.456;2023-02-20T15:59:41;56645.81;;;-146.93;68.93
21664;BME280;10993;52.510;13.456;2023-02-20T16:04:43;56647.84;;;-146.93;69.24
21664;BME280;10993;52.510;13.456;2023-02-20T16:09:43;56662.03;;;-146.93;70.46
21664;BME280;10993;52.510;13.456;2023-02-20T16:14:44;56649.88;;;-146.93;70.55
21664;BME280;10993;52.510;13.456;2023-02-20T16:19:45;56649.88;;;-146.93;71.68
21664;BME280;10993;52.510;13.456;2023-02-20T16:24:46;56639.75;;;-146.93;71.40
21664;BME280;10993;52.510;13.456;2023-02-20T16:29:47;56664.06;;;-146.93;72.41
21664;BME280;10993;52.510;13.456;2023-02-20T16:34:50;56657.97;;;-146.93;73.50
21664;BME280;10993;52.510;13.456;2023-02-20T16:39:51;56660.00;;;-146.93;74.99
21664;BME280;10993;52.510;13.456;2023-02-20T16:44:52;56672.16;;;-146.93;75.84
21664;BME280;10993;52.510;13.456;2023-02-20T16:49:59;56684.31;;;-146.93;75.94
21664;BME280;10993;52.510;13.456;2023-02-20T16:55:01;56621.53;;;-146.93;76.69
21664;BME280;10993;52.510;13.456;2023-02-20T17:00:02;56662.03;;;-146.93;76.01
21664;BME280;10993;52.510;13.456;2023-02-20T17:05:06;56664.06;;;-146.93;75.76
21664;BME280;10993;52.510;13.456;2023-02-20T17:10:07;56623.56;;;-146.93;75.88
21664;BME280;10993;52.510;13.456;2023-02-20T17:15:09;56641.78;;;-146.93;76.82
21664;BME280;10993;52.510;13.456;2023-02-20T17:20:13;56643.81;;;-146.93;76.67
21664;BME280;10993;52.510;13.456;2023-02-20T17:25:16;56653.94;;;-146.93;76.00
21664;BME280;10993;52.510;13.456;2023-02-20T17:30:19;56645.81;;;-146.93;75.88
21664;BME280;10993;52.510;13.456;2023-02-20T17:35:20;56647.84;;;-146.93;76.18
21664;BME280;10993;52.510;13.456;2023-02-20T17:40:21;56639.75;;;-146.93;76.12
21664;BME280;10993;52.510;13.456;2023-02-20T17:45:21;56657.97;;;-146.93;77.81
21664;BME280;10993;52.510;13.456;2023-02-20T17:50:23;56710.63;;;-146.93;78.47
21664;BME280;10993;52.510;13.456;2023-02-20T17:55:25;56625.59;;;-146.93;79.82
21664;BME280;10993;52.510;13.456;2023-02-20T18:00:26;56615.47;;;-146.93;80.29
21664;BME280;10993;52.510;13.456;2023-02-20T18:05:27;56623.56;;;-146.93;80.21
21664;BME280;10993;52.510;13.456;2023-02-20T18:10:28;56577.00;;;-146.93;80.56
21664;BME280;10993;52.510;13.456;2023-02-20T18:15:28;56641.78;;;-146.93;80.33
21664;BME280;10993;52.510;13.456;2023-02-20T18:20:30;56633.69;;;-146.93;81.02
21664;BME280;10993;52.510;13.456;2023-02-20T18:25:31;56603.31;;;-146.93;80.66
21664;BME280;10993;52.510;13.456;2023-02-20T18:30:31;56629.63;;;-146.93;81.80
21664;BME280;10993;52.510;13.456;2023-02-20T18:35:35;56635.72;;;-146.93;83.62
21664;BME280;10993;52.510;13.456;2023-02-20T18:40:36;56641.78;;;-146.93;84.70
21664;BME280;10993;52.510;13.456;2023-02-20T18:45:36;56506.13;;;-146.93;85.86
21664;BME280;10993;52.510;13.456;2023-02-20T18:50:38;56631.66;;;-146.93;86.88
21664;BME280;10993;52.510;13.456;2023-02-20T18:55:38;56566.88;;;-146.93;87.50
21664;BME280;10993;52.510;13.456;2023-02-20T19:00:39;56627.59;;;-146.93;88.21
21664;BME280;10993;52.510;13.456;2023-02-20T19:05:41;56595.22;;;-146.93;87.65
21664;BME280;10993;52.510;13.456;2023-02-20T19:10:41;56625.59;;;-146.93;88.15
21664;BME280;10993;52.510;13.456;2023-02-20T19:15:41;56617.47;;;-146.93;88.32
21664;BME280;10993;52.510;13.456;2023-02-20T19:20:43;56603.31;;;-146.93;88.04
21664;BME280;10993;52.510;13.456;2023-02-20T19:25:43;56641.78;;;-146.93;87.32
21664;BME280;10993;52.510;13.456;2023-02-20T19:30:44;56619.50;;;-146.93;87.64
21664;BME280;10993;52.510;13.456;2023-02-20T19:35:46;56621.53;;;-146.93;87.43
21664;BME280;10993;52.510;13.456;2023-02-20T19:40:47;56481.84;;;-146.93;86.69
21664;BME280;10993;52.510;13.456;2023-02-20T19:45:48;56645.81;;;-146.93;86.58
21664;BME280;10993;52.510;13.456;2023-02-20T19:50:49;56655.94;;;-146.93;86.36
21664;BME280;10993;52.510;13.456;2023-02-20T19:55:50;56666.06;;;-146.93;86.45
21664;BME280;10993;52.510;13.456;2023-02-20T20:00:54;56609.38;;;-146.93;86.26
21664;BME280;10993;52.510;13.456;2023-02-20T20:05:56;56629.63;;;-146.93;86.04
21664;BME280;10993;52.510;13.456;2023-02-20T20:10:57;56649.88;;;-146.93;85.36
21664;BME280;10993;52.510;13.456;2023-02-20T20:15:58;56666.06;;;-146.93;84.97
21664;BME280;10993;52.510;13.456;2023-02-20T20:21:00;56637.72;;;-146.93;83.98
21664;BME280;10993;52.510;13.456;2023-02-20T20:26:01;56653.94;;;-146.93;84.17
21664;BME280;10993;52.510;13.456;2023-02-20T20:31:01;56629.63;;;-146.93;83.58
21664;BME280;10993;52.510;13.456;2023-02-20T20:36:03;56678.22;;;-146.93;82.64
21664;BME280;10993;52.510;13.456;2023-02-20T20:41:04;56651.91;;;-146.93;82.40
21664;BME280;10993;52.510;13.456;2023-02-20T20:46:04;57441.66;;;-146.93;81.65
21664;BME280;10993;52.510;13.456;2023-02-20T20:51:06;56888.81;;;-146.93;81.69
21664;BME280;10993;52.510;13.456;2023-02-20T20:56:07;56651.91;;;-146.93;82.01
21664;BME280;10993;52.510;13.456;2023-02-20T21:01:08;56682.28;;;-146.93;81.92
21664;BME280;10993;52.510;13.456;2023-02-20T21:06:10;56577.00;;;-146.93;81.68
21664;BME280;10993;52.510;13.456;2023-02-20T21:11:11;56674.19;;;-146.93;81.71
21664;BME280;10993;52.510;13.456;2023-02-20T21:16:13;56714.66;;;-146.93;81.72
21664;BME280;10993;52.510;13.456;2023-02-20T21:21:14;56682.28;;;-146.93;81.79
21664;BME280;10993;52.510;13.456;2023-02-20T21:26:15;56666.06;;;-146.93;81.52
21664;BME280;10993;52.510;13.456;2023-02-20T21:31:15;56682.28;;;-146.93;81.35
21664;BME280;10993;52.510;13.456;2023-02-20T21:36:17;56641.78;;;-146.93;81.32
21664;BME280;10993;52.510;13.456;2023-02-20T21:41:19;56498.03;;;-146.93;80.47
21664;BME280;10993;52.510;13.456;2023-02-20T21:46:39;56649.88;;;-146.93;80.89
21664;BME280;10993;52.510;13.456;2023-02-20T21:51:40;56625.59;;;-146.93;80.63
21664;BME280;10993;52.510;13.456;2023-02-20T21:56:41;56653.94;;;-146.93;80.70
21664;BME280;10993;52.510;13.456;2023-02-20T22:01:42;56589.13;;;-146.93;80.69
21664;BME280;10993;52.510;13.456;2023-02-20T22:06:45;56649.88;;;-146.93;81.32
21664;BME280;10993;52.510;13.456;2023-02-20T22:12:05;56688.34;;;-146.93;81.67
21664;BME280;10993;52.510;13.456;2023-02-20T22:17:24;56657.97;;;-146.93;82.31
21664;BME280;10993;52.510;13.456;2023-02-20T22:22:44;56629.63;;;-146.93;82.25
21664;BME280;10993;52.510;13.456;2023-02-20T22:28:03;56676.19;;;-146.93;82.70
21664;BME280;10993;52.510;13.456;2023-02-20T22:33:22;56680.25;;;-146.93;83.25
21664;BME280;10993;52.510;13.456;2023-02-20T22:38:42;56670.13;;;-146.93;83.63
21664;BME280;10993;52.510;13.456;2023-02-20T22:44:01;56562.81;;;-146.93;83.40
21664;BME280;10993;52.510;13.456;2023-02-20T22:49:20;56690.38;;;-146.93;83.76
21664;BME280;10993;52.510;13.456;2023-02-20T22:54:40;56670.13;;;-146.93;83.71
21664;BME280;10993;52.510;13.456;2023-02-20T22:59:59;56615.47;;;-146.93;84.67
21664;BME280;10993;52.510;13.456;2023-02-20T23:05:18;56619.50;;;-146.93;85.98
21664;BME280;10993;52.510;13.456;2023-02-20T23:10:39;56637.72;;;-146.93;86.25
21664;BME280;10993;52.510;13.456;2023-02-20T23:15:58;56625.59;;;-146.93;87.58
21664;BME280;10993;52.510;13.456;2023-02-20T23:21:17;56653.94;;;-146.93;87.46
21664;BME280;10993;52.510;13.456;2023-02-20T23:26:38;56637.72;;;-146.93;88.60
21664;BME280;10993;52.510;13.456;2023-02-20T23:31:57;56583.06;;;-146.93;88.72
21664;BME280;10993;52.510;13.456;2023-02-20T23:37:16;56666.06;;;-146.93;89.51
21664;BME280;10993;52.510;13.456;2023-02-20T23:42:36;56609.38;;;-146.93;90.28
21664;BME280;10993;52.510;13.456;2023-02-20T23:47:55;56633.69;;;-146.93;90.71
21664;BME280;10993;52.510;13.456;2023-02-20T23:53:14;56629.63;;;-146.93;90.64
21664;BME280;10993;52.510;13.456;2023-02-20T23:58:34;56633.69;;;-146.93;90.83
